Time;durP1;ratioP1;P1;durP2;ratioP2;P2;SDS_P1;SDS_P2;PMS_P1;PMS_P2;Temp;Humidity;BMP_temperature;BMP_pressure;BME280_temperature;BME280_humidity;BME280_pressure;Samples;Min_cycle;Max_cycle;Signal;HPM_P1;HPM_P2
2021/10/07 00:00:16;;;;;;;27.40;12.50;;;;;;;11.72;58.44;99668.88;113422;1193;98963;-72
2021/10/07 00:03:07;;;;;;;26.30;12.30;;;;;;;11.69;58.60;99676.05;113406;1193;97390;-70
2021/10/07 00:05:39;;;;;;;27.60;13.90;;;;;;;11.63;58.62;99665.77;113446;1195;112518;-71
2021/10/07 00:08:06;;;;;;;23.00;11.70;;;;;;;11.58;58.59;99671.78;113405;1194;99066;-70
2021/10/07 00:10:35;;;;;;;25.90;12.70;;;;;;;11.57;58.66;99675.58;113318;1194;107622;-71
2021/10/07 00:13:02;;;;;;;24.90;11.50;;;;;;;11.55;58.74;99672.91;113393;1193;98977;-71
2021/10/07 00:15:30;;;;;;;25.10;11.80;;;;;;;11.54;58.76;99682.02;113304;1193;98953;-71
2021/10/07 00:17:58;;;;;;;26.30;12.50;;;;;;;11.53;58.81;99677.46;113316;1193;112535;-72
2021/10/07 00:20:30;;;;;;;25.20;11.70;;;;;;;11.50;58.82;99676.92;113493;1194;98870;-72
2021/10/07 00:23:02;;;;;;;26.20;12.00;;;;;;;11.48;58.87;99679.90;113367;1194;107584;-71
2021/10/07 00:25:33;;;;;;;27.00;12.20;;;;;;;11.46;58.77;99676.67;113225;1196;98999;-71
2021/10/07 00:28:09;;;;;;;23.60;11.90;;;;;;;11.41;58.94;99678.23;113429;1193;96377;-71
2021/10/07 00:30:41;;;;;;;22.70;12.10;;;;;;;11.40;59.03;99681.84;113420;1193;112474;-71
2021/10/07 00:33:26;;;;;;;22.80;11.20;;;;;;;11.41;59.07;99679.13;113397;1195;98973;-73
2021/10/07 00:36:12;;;;;;;27.20;12.80;;;;;;;11.36;58.95;99675.23;113410;1195;107525;-73
2021/10/07 00:39:02;;;;;;;24.60;11.80;;;;;;;11.30;59.07;99682.70;113220;1195;99134;-74
2021/10/07 00:41:42;;;;;;;25.40;11.90;;;;;;;11.26;59.08;99675.29;113491;1193;99655;-73
2021/10/07 00:44:14;;;;;;;23.00;11.40;;;;;;;11.24;59.01;99675.96;113282;1193;111841;-74
2021/10/07 00:46:50;;;;;;;30.20;13.10;;;;;;;11.18;58.95;99677.81;113448;1193;98885;-73
2021/10/07 00:49:23;;;;;;;25.80;11.50;;;;;;;11.10;58.97;99677.77;113302;1193;108558;-72
2021/10/07 00:51:55;;;;;;;26.00;11.90;;;;;;;11.05;59.10;99684.14;113422;1193;98976;-72
2021/10/07 00:54:28;;;;;;;24.70;12.10;;;;;;;11.05;59.14;99690.36;113403;1194;98937;-73
2021/10/07 00:57:01;;;;;;;23.00;11.20;;;;;;;11.04;59.24;99694.15;113447;1193;112276;-74
2021/10/07 00:59:35;;;;;;;28.60;11.50;;;;;;;11.05;59.26;99695.36;113482;1193;98964;-73
2021/10/07 01:02:10;;;;;;;26.70;12.20;;;;;;;11.05;59.20;99694.64;113438;1186;107500;-73
2021/10/07 01:04:40;;;;;;;25.00;11.50;;;;;;;11.03;59.29;99696.30;113075;1195;99607;-73
2021/10/07 01:07:10;;;;;;;23.10;11.30;;;;;;;11.01;59.26;99696.83;113096;1195;99602;-73
2021/10/07 01:09:39;;;;;;;25.90;11.70;;;;;;;11.00;59.28;99695.08;113416;1194;112532;-72
2021/10/07 01:12:11;;;;;;;24.50;11.30;;;;;;;10.99;59.39;99694.45;113178;1195;98916;-73
2021/10/07 01:15:03;;;;;;;25.00;11.90;;;;;;;10.99;59.37;99699.93;113035;1195;107551;-73
2021/10/07 01:17:35;;;;;;;24.40;11.60;;;;;;;10.98;59.46;99700.02;113391;1193;97821;-73
2021/10/07 01:20:08;;;;;;;25.40;11.90;;;;;;;10.98;59.51;99698.98;113460;1193;96385;-72
2021/10/07 01:22:37;;;;;;;24.10;11.20;;;;;;;10.99;59.44;99698.21;113427;1193;113549;-72
2021/10/07 01:25:08;;;;;;;25.10;11.10;;;;;;;10.97;59.51;99694.20;113463;1193;99150;-73
2021/10/07 01:27:37;;;;;;;25.40;11.10;;;;;;;10.98;59.51;99698.08;113413;1193;107615;-72
2021/10/07 01:30:14;;;;;;;24.50;10.80;;;;;;;10.96;59.46;99698.57;113430;1193;98906;-73
2021/10/07 01:32:43;;;;;;;25.20;11.90;;;;;;;10.95;59.49;99702.36;113424;1195;96548;-73
2021/10/07 01:35:14;;;;;;;24.60;10.70;;;;;;;10.93;59.62;99699.14;113425;1194;112567;-74
2021/10/07 01:37:46;;;;;;;24.00;11.80;;;;;;;10.91;59.52;99704.04;113431;1194;97467;-73
2021/10/07 01:40:14;;;;;;;25.50;10.80;;;;;;;10.88;59.60;99704.92;113391;1194;107508;-74
2021/10/07 01:42:42;;;;;;;23.80;12.00;;;;;;;10.87;59.68;99706.94;113206;1195;99041;-74
2021/10/07 01:45:21;;;;;;;24.30;10.80;;;;;;;10.85;59.57;99708.08;113421;1193;98918;-74
2021/10/07 01:47:52;;;;;;;25.60;10.60;;;;;;;10.82;59.69;99708.98;113375;1193;112518;-73
2021/10/07 01:50:20;;;;;;;24.60;11.30;;;;;;;10.79;59.66;99714.16;113234;1194;98856;-74
2021/10/07 01:52:48;;;;;;;22.50;11.20;;;;;;;10.78;59.71;99717.09;113394;1194;107473;-74
2021/10/07 01:55:16;;;;;;;26.00;11.30;;;;;;;10.76;59.69;99711.34;113203;1195;98985;-73
2021/10/07 01:57:43;;;;;;;23.90;10.50;;;;;;;10.74;59.70;99715.89;113441;1193;98966;-73
2021/10/07 02:00:12;;;;;;;28.40;11.50;;;;;;;10.72;59.72;99711.41;113440;1193;112456;-73
2021/10/07 02:02:44;;;;;;;25.30;10.70;;;;;;;10.71;59.71;99713.95;113452;1193;98861;-74
2021/10/07 02:05:16;;;;;;;22.90;11.00;;;;;;;10.69;59.78;99717.98;113449;1193;107592;-73
2021/10/07 02:07:47;;;;;;;23.10;10.70;;;;;;;10.68;59.80;99718.42;113438;1193;96580;-73
2021/10/07 02:10:16;;;;;;;22.60;10.80;;;;;;;10.66;59.89;99718.01;113382;1195;98995;-71
2021/10/07 02:12:52;;;;;;;23.40;11.50;;;;;;;10.65;59.95;99719.11;113435;1195;112478;-72
2021/10/07 02:15:20;;;;;;;23.90;11.00;;;;;;;10.64;59.95;99720.40;113414;1190;98981;-73
2021/10/07 02:17:48;;;;;;;25.80;11.20;;;;;;;10.63;59.87;99721.56;113404;1193;107586;-72
2021/10/07 02:20:16;;;;;;;27.80;11.30;;;;;;;10.62;59.94;99724.45;113334;1193;98880;-72
2021/10/07 02:22:44;;;;;;;25.00;11.00;;;;;;;10.60;60.07;99725.10;113176;1193;97574;-72
2021/10/07 02:25:11;;;;;;;22.60;10.70;;;;;;;10.59;60.13;99730.11;113326;1193;112508;-72
2021/10/07 02:27:40;;;;;;;24.60;10.80;;;;;;;10.57;60.10;99729.70;113389;1193;99020;-73
2021/10/07 02:30:15;;;;;;;24.40;11.30;;;;;;;10.57;60.14;99733.28;113938;1193;107523;-73
2021/10/07 02:32:47;;;;;;;23.00;11.70;;;;;;;10.56;60.11;99736.55;113465;1193;96336;-72
2021/10/07 02:35:19;;;;;;;26.00;11.70;;;;;;;10.54;60.13;99731.70;113490;1193;99017;-72
2021/10/07 02:37:51;;;;;;;24.60;11.20;;;;;;;10.52;60.14;99731.83;113450;1193;112525;-71
2021/10/07 02:40:23;;;;;;;25.30;11.50;;;;;;;10.50;60.17;99733.20;113436;1193;98966;-72
2021/10/07 02:42:51;;;;;;;24.30;11.30;;;;;;;10.48;60.22;99736.64;113420;1195;107175;-72
2021/10/07 02:45:23;;;;;;;27.10;12.10;;;;;;;10.46;60.19;99733.05;113186;1195;99012;-73
2021/10/07 02:47:54;;;;;;;23.60;10.80;;;;;;;10.45;60.26;99733.15;113468;1193;98914;-72
2021/10/07 02:50:29;;;;;;;25.30;12.00;;;;;;;10.42;60.17;99733.66;113300;1193;111138;-73
2021/10/07 02:52:57;;;;;;;21.70;10.10;;;;;;;10.39;60.22;99736.48;113500;1193;98982;-75
2021/10/07 02:55:25;;;;;;;28.40;11.30;;;;;;;10.36;60.14;99731.17;113461;1193;107529;-73
2021/10/07 02:57:53;;;;;;;26.20;11.50;;;;;;;10.33;60.31;99734.69;113457;1193;98930;-73
2021/10/07 03:00:20;;;;;;;22.50;10.70;;;;;;;10.31;60.31;99737.85;113450;1193;98927;-72
2021/10/07 03:02:48;;;;;;;25.00;10.50;;;;;;;10.27;60.26;99740.02;113376;1193;112530;-72
2021/10/07 03:05:20;;;;;;;23.80;11.20;;;;;;;10.23;60.27;99746.63;113434;1195;99025;-71
2021/10/07 03:07:48;;;;;;;25.60;10.90;;;;;;;10.21;60.35;99747.44;113160;1197;105537;-73
2021/10/07 03:10:20;;;;;;;27.30;11.80;;;;;;;10.18;60.38;99751.73;113144;1195;98935;-72
2021/10/07 03:12:51;;;;;;;22.60;11.50;;;;;;;10.16;60.42;99751.52;113218;1195;97843;-71
2021/10/07 03:15:19;;;;;;;24.10;11.10;;;;;;;10.12;60.37;99752.98;113198;1195;112553;-71
2021/10/07 03:17:47;;;;;;;22.50;10.60;;;;;;;10.08;60.35;99758.17;113461;1194;99034;-72
2021/10/07 03:20:18;;;;;;;24.90;10.80;;;;;;;10.05;60.38;99763.31;113207;1195;107610;-71
2021/10/07 03:22:46;;;;;;;30.10;11.60;;;;;;;9.99;60.39;99768.61;113231;1195;98344;-71
2021/10/07 03:25:18;;;;;;;22.90;11.10;;;;;;;9.93;60.38;99766.16;113430;1195;99420;-73
2021/10/07 03:27:45;;;;;;;26.70;11.60;;;;;;;9.90;60.53;99768.30;113360;1194;112342;-73
2021/10/07 03:30:16;;;;;;;26.00;11.60;;;;;;;9.87;60.54;99771.28;113433;1195;98885;-71
2021/10/07 03:32:44;;;;;;;29.20;10.90;;;;;;;9.83;60.56;99773.61;113116;1195;107629;-72
2021/10/07 03:35:12;;;;;;;24.30;10.60;;;;;;;9.79;60.54;99772.60;113168;1195;99055;-72
2021/10/07 03:37:40;;;;;;;23.80;11.00;;;;;;;9.76;60.64;99777.95;113151;1195;97879;-71
2021/10/07 03:40:13;;;;;;;24.60;11.90;;;;;;;9.72;60.52;99781.52;113220;1195;112514;-71
2021/10/07 03:42:41;;;;;;;24.90;11.60;;;;;;;9.69;60.58;99786.66;113419;1195;99623;-71
2021/10/07 03:45:09;;;;;;;23.10;10.70;;;;;;;9.66;60.62;99785.55;113044;1195;107764;-71
2021/10/07 03:47:37;;;;;;;23.10;10.60;;;;;;;9.62;60.64;99785.98;113101;1195;99101;-71
2021/10/07 03:50:08;;;;;;;24.80;11.00;;;;;;;9.59;60.69;99787.95;113222;1194;99012;-72
2021/10/07 03:52:35;;;;;;;25.20;11.90;;;;;;;9.56;60.73;99791.98;113088;1195;112501;-72
2021/10/07 03:55:08;;;;;;;24.00;10.70;;;;;;;9.52;60.77;99795.75;113372;1195;99009;-72
2021/10/07 03:57:35;;;;;;;24.10;9.80;;;;;;;9.46;60.75;99802.83;113198;1194;106361;-71
2021/10/07 04:00:08;;;;;;;21.80;10.30;;;;;;;9.43;60.76;99803.90;113155;1195;98989;-73
2021/10/07 04:02:40;;;;;;;23.80;11.20;;;;;;;9.40;60.75;99801.91;113189;1195;99012;-71
2021/10/07 04:05:11;;;;;;;22.40;10.50;;;;;;;9.37;60.84;99810.59;113188;1195;111412;-72
2021/10/07 04:07:41;;;;;;;24.80;11.90;;;;;;;9.34;60.83;99811.84;113270;1194;98924;-72
2021/10/07 04:10:10;;;;;;;25.40;11.20;;;;;;;9.30;60.88;99819.27;113082;1195;105874;-71
2021/10/07 04:12:38;;;;;;;23.20;10.70;;;;;;;9.27;60.86;99821.74;113189;1195;98288;-71
2021/10/07 04:15:07;;;;;;;21.60;9.80;;;;;;;9.22;60.85;99822.03;113294;1195;97457;-71
2021/10/07 04:17:34;;;;;;;23.60;11.10;;;;;;;9.16;60.85;99824.65;113578;1192;111722;-70
2021/10/07 04:20:06;;;;;;;33.50;10.60;;;;;;;9.12;60.88;99827.88;113429;1193;98914;-72
2021/10/07 04:22:34;;;;;;;23.40;10.40;;;;;;;9.06;60.90;99831.04;113349;1193;107311;-71
2021/10/07 04:25:03;;;;;;;26.00;11.00;;;;;;;9.00;61.04;99837.14;113409;1195;98345;-73
2021/10/07 04:27:31;;;;;;;24.60;10.70;;;;;;;8.99;60.88;99841.47;113467;1194;98988;-72
2021/10/07 04:30:07;;;;;;;22.60;10.80;;;;;;;8.97;60.92;99845.70;113165;1195;113758;-72
2021/10/07 04:32:39;;;;;;;22.30;10.10;;;;;;;8.90;61.04;99851.67;113088;1195;97063;-73
2021/10/07 04:35:07;;;;;;;25.30;10.40;;;;;;;8.85;61.01;99852.17;113453;1193;107530;-72
2021/10/07 04:37:35;;;;;;;23.10;10.40;;;;;;;8.79;61.04;99853.83;113362;1193;96374;-72
2021/10/07 04:40:07;;;;;;;25.90;10.60;;;;;;;8.78;61.18;99854.25;113442;1193;96408;-72
2021/10/07 04:42:34;;;;;;;24.40;10.70;;;;;;;8.75;61.14;99859.17;113382;1193;112509;-72
2021/10/07 04:45:05;;;;;;;27.30;10.80;;;;;;;8.72;61.17;99858.48;113410;1195;99677;-73
2021/10/07 04:47:33;;;;;;;25.20;10.40;;;;;;;8.70;61.17;99867.06;113189;1194;107522;-70
2021/10/07 04:50:04;;;;;;;25.40;10.30;;;;;;;8.67;61.27;99870.25;113374;1194;99008;-72
2021/10/07 04:52:32;;;;;;;24.20;9.90;;;;;;;8.65;61.36;99878.29;113451;1194;98882;-72
2021/10/07 04:55:08;;;;;;;25.20;10.10;;;;;;;8.64;61.35;99879.56;113409;1195;112571;-72
2021/10/07 04:57:36;;;;;;;23.60;10.00;;;;;;;8.61;61.34;99880.22;113145;1194;98900;-72
2021/10/07 05:00:11;;;;;;;22.30;10.30;;;;;;;8.58;61.29;99878.80;113364;1195;107471;-71
2021/10/07 05:02:44;;;;;;;24.50;9.90;;;;;;;8.54;61.40;99879.05;113419;1196;98916;-73
2021/10/07 05:05:12;;;;;;;21.90;9.80;;;;;;;8.51;61.30;99880.25;113440;1194;99005;-72
2021/10/07 05:07:40;;;;;;;26.80;10.60;;;;;;;8.49;61.40;99885.63;113432;1194;112527;-73
2021/10/07 05:10:12;;;;;;;23.00;10.00;;;;;;;8.46;61.29;99886.46;113253;1195;98888;-72
2021/10/07 05:12:41;;;;;;;25.30;9.80;;;;;;;8.39;61.34;99888.23;113110;1195;107194;-72
2021/10/07 05:15:12;;;;;;;24.20;10.30;;;;;;;8.34;61.49;99888.44;113180;1195;99020;-71
2021/10/07 05:17:39;;;;;;;24.50;10.20;;;;;;;8.35;61.58;99890.52;113416;1194;98905;-72
2021/10/07 05:20:11;;;;;;;20.80;8.70;;;;;;;8.34;61.54;99892.02;113389;1193;113456;-72
2021/10/07 05:22:39;;;;;;;23.30;10.10;;;;;;;8.30;61.53;99895.39;113332;1193;98917;-71
2021/10/07 05:25:07;;;;;;;22.70;10.00;;;;;;;8.28;61.41;99895.11;113377;1193;107611;-72
2021/10/07 05:27:35;;;;;;;26.00;10.10;;;;;;;8.27;61.68;99895.02;113391;1194;98991;-70
2021/10/07 05:30:08;;;;;;;25.50;9.60;;;;;;;8.29;61.59;99897.20;113428;1195;98980;-72
2021/10/07 05:32:39;;;;;;;25.60;10.00;;;;;;;8.31;61.79;99898.52;113226;1194;112135;-71
2021/10/07 05:35:10;;;;;;;21.20;8.50;;;;;;;8.32;61.75;99900.79;113420;1195;99597;-72
2021/10/07 05:37:38;;;;;;;26.40;9.50;;;;;;;8.30;61.84;99907.05;113184;1195;107622;-71
2021/10/07 05:40:10;;;;;;;24.20;10.30;;;;;;;8.28;61.84;99908.75;113236;1195;99000;-72
2021/10/07 05:42:42;;;;;;;23.60;9.70;;;;;;;8.29;61.75;99908.67;113158;1195;96453;-73
2021/10/07 05:45:11;;;;;;;20.70;9.20;;;;;;;8.30;61.88;99912.89;113360;1195;112651;-72
2021/10/07 05:47:42;;;;;;;27.00;11.80;;;;;;;8.31;61.85;99914.60;113279;1195;96998;-72
2021/10/07 05:50:14;;;;;;;28.40;12.50;;;;;;;8.30;61.89;99913.41;113241;1195;107511;-71
2021/10/07 05:52:42;;;;;;;24.60;9.10;;;;;;;8.30;61.88;99915.36;113392;1193;99020;-72
2021/10/07 05:55:10;;;;;;;19.20;8.80;;;;;;;8.31;61.96;99915.50;113456;1194;96463;-71
2021/10/07 05:57:42;;;;;;;25.50;8.70;;;;;;;8.31;61.88;99910.89;113449;1194;112520;-72
2021/10/07 06:00:14;;;;;;;19.80;8.20;;;;;;;8.31;61.99;99914.44;113419;1194;99005;-71
2021/10/07 06:02:41;;;;;;;25.80;8.90;;;;;;;8.32;61.92;99918.09;113398;1194;107457;-73
2021/10/07 06:05:17;;;;;;;25.20;8.90;;;;;;;8.31;61.90;99923.23;113221;1195;96377;-72
2021/10/07 06:07:45;;;;;;;22.40;9.20;;;;;;;8.32;62.07;99920.21;113217;1195;96394;-72
2021/10/07 06:10:17;;;;;;;24.00;9.40;;;;;;;8.34;62.11;99925.05;113209;1195;111506;-70
2021/10/07 06:12:45;;;;;;;24.50;9.10;;;;;;;8.37;62.15;99924.72;113137;1195;96495;-71
2021/10/07 06:15:13;;;;;;;24.40;9.40;;;;;;;8.39;62.06;99926.23;113287;1195;107518;-72
2021/10/07 06:17:41;;;;;;;28.20;10.30;;;;;;;8.39;62.07;99928.86;113163;1195;96515;-71
2021/10/07 06:20:22;;;;;;;24.40;10.60;;;;;;;8.40;62.10;99924.02;113237;1194;98984;-71
2021/10/07 06:22:58;;;;;;;23.30;9.40;;;;;;;8.39;62.01;99925.89;113454;1195;112512;-72
2021/10/07 06:25:31;;;;;;;25.80;10.00;;;;;;;8.36;62.10;99924.40;113482;1195;98962;-71
2021/10/07 06:27:59;;;;;;;26.90;10.50;;;;;;;8.38;62.15;99926.99;113373;1196;107505;-71
2021/10/07 06:30:36;;;;;;;30.50;9.90;;;;;;;8.37;62.09;99928.43;113420;1194;98970;-71
2021/10/07 06:33:04;;;;;;;21.90;9.40;;;;;;;8.39;62.14;99925.71;113463;1195;98949;-72
2021/10/07 06:35:32;;;;;;;21.90;8.20;;;;;;;8.39;62.01;99926.21;113349;1196;112445;-72
2021/10/07 06:38:00;;;;;;;22.50;8.90;;;;;;;8.40;62.08;99934.09;113465;1194;99026;-71
2021/10/07 06:40:32;;;;;;;23.80;8.90;;;;;;;8.44;62.08;99930.55;113467;1195;107286;-72
2021/10/07 06:43:00;;;;;;;21.20;8.30;;;;;;;8.45;62.01;99933.33;113239;1195;98951;-72
2021/10/07 06:45:29;;;;;;;23.50;8.60;;;;;;;8.47;62.22;99934.27;113459;1193;96378;-71
2021/10/07 06:48:01;;;;;;;23.10;9.90;;;;;;;8.52;62.06;99942.40;113412;1195;113380;-71
2021/10/07 06:50:30;;;;;;;25.50;9.20;;;;;;;8.53;62.21;99943.08;113443;1196;99714;-72
2021/10/07 06:52:58;;;;;;;21.50;8.40;;;;;;;8.53;62.17;99941.83;113263;1195;107593;-72
2021/10/07 06:55:26;;;;;;;21.50;7.40;;;;;;;8.56;62.17;99950.69;113446;1194;96450;-71
2021/10/07 06:57:53;;;;;;;26.40;8.50;;;;;;;8.59;62.36;99948.23;113418;1194;96371;-73
2021/10/07 07:00:22;;;;;;;21.90;7.50;;;;;;;8.63;62.19;99948.02;113286;1195;112508;-72
2021/10/07 07:02:51;;;;;;;22.20;8.60;;;;;;;8.67;62.32;99951.21;113395;1195;96388;-72
2021/10/07 07:05:23;;;;;;;27.40;7.80;;;;;;;8.70;62.18;99950.84;113135;1195;107462;-72
2021/10/07 07:07:55;;;;;;;26.70;9.20;;;;;;;8.75;62.27;99945.16;113365;1194;99045;-74
2021/10/07 07:10:23;;;;;;;21.90;7.70;;;;;;;8.79;62.22;99950.25;113428;1195;99024;-74
2021/10/07 07:12:51;;;;;;;27.00;8.30;;;;;;;8.83;62.24;99944.40;113407;1194;112467;-74
2021/10/07 07:15:23;;;;;;;24.00;8.10;;;;;;;8.88;62.22;99949.06;113399;1195;99014;-74
2021/10/07 07:17:52;;;;;;;23.30;9.00;;;;;;;8.92;62.17;99947.08;113255;1195;107415;-74
2021/10/07 07:20:20;;;;;;;23.40;7.70;;;;;;;8.96;62.22;99953.11;113237;1194;98940;-71
2021/10/07 07:22:47;;;;;;;19.50;7.20;;;;;;;9.00;62.15;99947.92;113445;1193;98994;-72
2021/10/07 07:25:20;;;;;;;25.20;9.20;;;;;;;9.04;62.25;99948.08;113428;1194;112566;-72
2021/10/07 07:27:48;;;;;;;23.40;7.10;;;;;;;9.09;62.24;99949.56;113448;1193;99112;-71
2021/10/07 07:30:15;;;;;;;23.20;7.70;;;;;;;9.14;62.22;99949.14;113441;1193;107617;-73
2021/10/07 07:32:47;;;;;;;22.30;8.10;;;;;;;9.20;62.30;99949.90;113410;1193;98913;-71
2021/10/07 07:35:15;;;;;;;20.60;8.10;;;;;;;9.26;62.29;99948.90;113372;1193;97416;-72
2021/10/07 07:37:43;;;;;;;19.20;6.50;;;;;;;9.31;62.25;99946.84;113325;1193;112520;-72
2021/10/07 07:40:11;;;;;;;27.90;8.20;;;;;;;9.35;62.20;99951.41;113100;1195;98874;-72
2021/10/07 07:42:39;;;;;;;23.10;7.30;;;;;;;9.40;62.12;99949.19;113312;1193;107491;-73
2021/10/07 07:45:08;;;;;;;19.90;7.50;;;;;;;9.44;62.13;99951.27;113231;1193;99626;-76
2021/10/07 07:48:04;;;;;;;22.60;7.40;;;;;;;9.50;62.16;99950.07;113307;1193;97120;-72
2021/10/07 07:50:31;;;;;;;20.60;7.00;;;;;;;9.56;62.09;99955.06;113341;1193;112183;-75
2021/10/07 07:52:59;;;;;;;23.10;7.70;;;;;;;9.63;62.00;99954.88;113369;1193;98882;-73
2021/10/07 07:55:29;;;;;;;25.20;7.50;;;;;;;9.67;62.03;99954.13;113277;1196;107546;-72
2021/10/07 07:57:58;;;;;;;20.80;7.30;;;;;;;9.71;62.04;99954.09;113246;1193;98899;-73
2021/10/07 08:00:27;;;;;;;20.70;7.50;;;;;;;9.76;62.09;99957.88;113173;1193;96443;-72
2021/10/07 08:03:00;;;;;;;20.90;6.90;;;;;;;9.80;61.98;99953.23;113214;1196;112522;-72
2021/10/07 08:05:30;;;;;;;22.70;7.00;;;;;;;9.84;62.00;99958.52;113196;1194;98973;-72
2021/10/07 08:08:02;;;;;;;21.70;7.70;;;;;;;9.89;61.95;99962.67;113253;1194;107523;-73
2021/10/07 08:10:32;;;;;;;22.30;7.50;;;;;;;9.97;62.03;99961.89;113074;1194;99025;-72
2021/10/07 08:13:02;;;;;;;21.50;7.20;;;;;;;10.07;62.03;99963.81;113064;1195;99009;-71
2021/10/07 08:15:30;;;;;;;21.60;6.70;;;;;;;10.17;62.11;99962.15;113297;1196;112498;-72
2021/10/07 08:17:58;;;;;;;23.80;7.40;;;;;;;10.29;62.05;99961.16;113475;1195;99325;-72
2021/10/07 08:20:32;;;;;;;23.20;7.50;;;;;;;10.38;62.00;99957.98;113203;1195;107624;-72
2021/10/07 08:23:12;;;;;;;20.80;7.30;;;;;;;10.47;61.97;99956.60;113383;1195;98957;-71
2021/10/07 08:25:41;;;;;;;21.40;7.60;;;;;;;10.56;61.77;99956.46;113238;1194;98969;-72
2021/10/07 08:28:10;;;;;;;23.60;7.10;;;;;;;10.65;61.63;99951.14;113327;1196;112618;-71
2021/10/07 08:30:38;;;;;;;23.70;6.80;;;;;;;11.09;61.54;99957.59;113381;1195;99017;-72
2021/10/07 08:33:06;;;;;;;20.10;6.90;;;;;;;11.70;61.35;99956.81;113366;1187;107512;-72
2021/10/07 08:35:35;;;;;;;22.20;6.20;;;;;;;12.33;61.38;99955.89;113169;1195;98958;-72
2021/10/07 08:38:03;;;;;;;21.80;6.80;;;;;;;12.89;61.53;99954.64;113375;1193;98902;-72
2021/10/07 08:40:32;;;;;;;19.70;7.30;;;;;;;13.45;61.62;99953.88;113305;1196;112521;-72
2021/10/07 08:43:00;;;;;;;22.10;7.30;;;;;;;14.06;61.44;99964.02;113371;1193;99027;-72
2021/10/07 08:45:30;;;;;;;21.50;6.40;;;;;;;14.63;61.54;99958.94;113326;1193;107404;-72
2021/10/07 08:47:59;;;;;;;19.80;5.90;;;;;;;15.05;61.38;99960.57;113304;1193;99019;-71
2021/10/07 08:50:28;;;;;;;18.00;6.80;;;;;;;15.34;61.16;99960.66;113348;1194;99006;-72
2021/10/07 08:53:01;;;;;;;24.70;6.50;;;;;;;15.44;60.57;99955.59;113229;1194;112555;-72
2021/10/07 08:55:30;;;;;;;21.70;6.70;;;;;;;15.44;60.62;99955.63;113420;1193;98975;-71
2021/10/07 08:57:57;;;;;;;23.40;7.20;;;;;;;15.48;60.67;99947.77;113335;1186;107540;-72
2021/10/07 09:00:27;;;;;;;20.50;6.20;;;;;;;15.61;60.33;99944.42;113350;1193;99047;-72
2021/10/07 09:02:56;;;;;;;31.80;6.80;;;;;;;15.65;59.36;99943.20;113368;1193;99028;-72
2021/10/07 09:05:29;;;;;;;18.40;5.90;;;;;;;15.62;59.69;99951.70;113295;1193;112628;-72
2021/10/07 09:08:02;;;;;;;23.50;6.70;;;;;;;15.79;59.73;99953.92;113273;1193;98932;-72
2021/10/07 09:10:51;;;;;;;26.00;6.10;;;;;;;16.02;59.71;99949.41;113022;1193;107332;-72
2021/10/07 09:13:23;;;;;;;29.90;6.10;;;;;;;16.32;59.40;99943.77;113011;1195;99377;-71
2021/10/07 09:15:55;;;;;;;14.90;5.70;;;;;;;16.48;58.55;99946.59;112996;1195;98944;-71
2021/10/07 09:18:26;;;;;;;20.40;5.50;;;;;;;16.73;59.11;99942.48;113078;1193;112559;-72
2021/10/07 09:20:58;;;;;;;19.90;6.20;;;;;;;17.04;58.81;99940.65;113258;1193;97638;-73
2021/10/07 09:23:33;;;;;;;24.50;6.90;;;;;;;17.32;58.22;99933.77;113170;1196;107468;-72
2021/10/07 09:26:08;;;;;;;21.50;6.00;;;;;;;17.64;58.16;99936.02;113166;1193;97488;-73
2021/10/07 09:28:58;;;;;;;20.40;5.70;;;;;;;17.96;58.15;99933.91;113231;1193;99048;-73
2021/10/07 09:31:28;;;;;;;21.60;5.80;;;;;;;18.17;57.96;99932.44;113325;1187;112652;-73
2021/10/07 09:34:01;;;;;;;23.70;6.40;;;;;;;18.23;57.34;99932.78;113219;1193;99070;-72
2021/10/07 09:36:31;;;;;;;21.20;6.00;;;;;;;18.16;57.00;99927.59;113273;1193;107995;-72
2021/10/07 09:39:03;;;;;;;22.90;6.00;;;;;;;18.09;56.42;99932.97;113184;1193;99641;-72
2021/10/07 09:41:33;;;;;;;22.70;6.60;;;;;;;17.99;56.26;99931.83;113363;1193;99122;-73
2021/10/07 09:44:07;;;;;;;22.10;6.10;;;;;;;17.89;56.16;99935.20;113288;1195;112314;-72
2021/10/07 09:46:46;;;;;;;36.30;6.40;;;;;;;17.74;55.31;99938.85;113278;1196;96485;-72
2021/10/07 09:49:19;;;;;;;21.90;6.70;;;;;;;17.57;55.11;99938.23;113106;1196;107568;-72
2021/10/07 09:51:54;;;;;;;21.40;6.20;;;;;;;17.51;55.25;99934.81;113061;1196;99097;-73
2021/10/07 09:54:27;;;;;;;20.60;6.30;;;;;;;17.47;54.84;99932.67;113257;1196;99091;-73
2021/10/07 09:57:02;;;;;;;22.90;6.50;;;;;;;17.50;54.33;99929.30;113289;1195;112154;-73
2021/10/07 09:59:33;;;;;;;26.80;6.40;;;;;;;17.53;54.21;99933.90;113296;1195;98880;-72
2021/10/07 10:02:02;;;;;;;32.40;7.10;;;;;;;17.54;53.26;99925.88;113338;1193;107569;-71
2021/10/07 10:04:31;;;;;;;26.20;6.50;;;;;;;17.50;52.01;99928.63;113276;1193;97537;-71
2021/10/07 10:07:01;;;;;;;21.70;5.80;;;;;;;17.31;52.31;99930.84;113354;1193;96452;-70
2021/10/07 10:09:29;;;;;;;23.50;7.40;;;;;;;17.29;52.42;99928.80;113348;1193;112504;-72
2021/10/07 10:11:58;;;;;;;23.70;6.30;;;;;;;17.32;52.43;99932.31;113314;1194;98901;-73
2021/10/07 10:14:26;;;;;;;24.70;6.10;;;;;;;17.36;52.41;99933.41;113289;1179;107528;-71
2021/10/07 10:16:54;;;;;;;26.60;5.90;;;;;;;17.37;52.05;99928.69;113291;1193;98985;-72
2021/10/07 10:19:23;;;;;;;19.30;6.60;;;;;;;17.38;51.63;99932.54;113308;1193;98927;-70
2021/10/07 10:21:54;;;;;;;26.50;7.30;;;;;;;17.33;50.87;99930.09;113326;1193;112176;-69
2021/10/07 10:24:25;;;;;;;21.20;6.60;;;;;;;17.31;50.66;99935.15;113333;1193;98977;-71
2021/10/07 10:27:03;;;;;;;22.90;7.20;;;;;;;17.27;50.67;99940.30;113093;1195;107558;-73
2021/10/07 10:29:33;;;;;;;23.60;6.60;;;;;;;17.24;50.96;99936.22;113098;1195;98969;-72
2021/10/07 10:32:05;;;;;;;25.90;7.30;;;;;;;17.24;50.83;99942.90;113266;1193;96510;-72
2021/10/07 10:34:46;;;;;;;21.80;6.40;;;;;;;17.31;50.95;99945.30;113293;1195;112555;-71
2021/10/07 10:37:15;;;;;;;24.80;7.40;;;;;;;17.41;50.88;99934.21;113271;1195;99028;-72
2021/10/07 10:39:45;;;;;;;24.40;7.30;;;;;;;17.49;50.88;99934.09;113346;1194;107957;-71
2021/10/07 10:42:17;;;;;;;22.10;6.40;;;;;;;17.56;50.88;99936.66;113346;1194;98941;-68
2021/10/07 10:44:45;;;;;;;21.20;7.00;;;;;;;17.60;50.65;99932.98;113148;1194;99095;-72
2021/10/07 10:47:21;;;;;;;22.60;7.50;;;;;;;17.66;49.46;99931.89;113356;1196;112518;-71
2021/10/07 10:50:12;;;;;;;22.20;6.90;;;;;;;17.61;49.53;99940.02;113274;1193;98970;-71
2021/10/07 10:52:54;;;;;;;32.10;8.20;;;;;;;17.49;48.25;99934.63;113327;1193;107531;-72
2021/10/07 10:55:28;;;;;;;21.50;7.50;;;;;;;17.36;48.37;99938.39;113362;1193;98977;-70
2021/10/07 10:58:15;;;;;;;26.10;6.20;;;;;;;17.28;48.36;99942.36;113336;1194;99054;-71
2021/10/07 11:00:45;;;;;;;31.10;8.60;;;;;;;17.32;48.46;99938.61;113335;1193;112614;-71
2021/10/07 11:03:19;;;;;;;23.50;7.10;;;;;;;17.35;47.87;99939.77;113405;1193;96374;-71
2021/10/07 11:05:53;;;;;;;29.70;8.40;;;;;;;17.33;47.90;99942.59;113251;1196;107316;-71
2021/10/07 11:08:23;;;;;;;21.40;6.90;;;;;;;17.32;47.54;99941.07;113028;1195;99021;-71
2021/10/07 11:11:30;;;;;;;23.60;6.30;;;;;;;17.30;47.16;99937.92;113267;1193;99709;-74
2021/10/07 11:14:01;;;;;;;20.90;6.80;;;;;;;17.26;46.78;99939.63;113358;1193;112560;-71
2021/10/07 11:16:32;;;;;;;18.50;5.60;;;;;;;17.21;47.13;99937.59;113382;1193;96570;-72
2021/10/07 11:19:02;;;;;;;23.90;6.40;;;;;;;17.22;47.01;99941.05;113096;1195;109200;-71
2021/10/07 11:21:31;;;;;;;20.90;6.10;;;;;;;17.26;47.27;99941.63;113192;1194;99632;-71
2021/10/07 11:23:59;;;;;;;26.50;7.20;;;;;;;17.29;46.46;99933.84;113297;1196;98970;-71
2021/10/07 11:26:32;;;;;;;22.30;6.50;;;;;;;17.31;47.04;99931.88;113202;1195;112494;-72
2021/10/07 11:29:00;;;;;;;21.00;6.00;;;;;;;17.41;47.32;99931.21;113380;1195;98998;-72
2021/10/07 11:31:29;;;;;;;27.50;6.90;;;;;;;17.51;47.03;99929.63;113270;1195;106498;-71